Atlanta, KS

8:33 AM CDT on October 24, 2014 (GMT -0500)
Atlanta Weather | Change Station
CLOSE
Current Station
Personal Weather Station
Location: Atlanta, KS
Elevation: 1447 ft
Nearby Weather Stations

Elev 1447 ft 37.43 °N, 96.76 °W | Updated 8 minutes ago

Clear
Clear
57.0 °F
Feels Like 57.0 °F
N
4.2
Wind Variable Wind from SSW

Today
High -- | Low -- °F
--% Chance of Precip.
Yesterday
High -- | Low -- °F
Precip. -- in
7:43 AM 6:38 PM
New Moon, 0% visible
Pressure 30.07 in
Visibility 7.0 miles
Clouds Clear
Dew Point 56 °F
Humidity 98%
Rainfall 0.00 in
Snow Depth Not available.
UV 0 out of 12
Pollen 3.60 out of 12
Air Quality Not available.
Flu Activity No Activity
METAR KWLD 241254Z AUTO 17008KT 7SM CLR 13/13 A3008 RMK AO2 SLP181 T01330133

More Conditions Fewer Conditions

Pressure 30.07 in
Visibility 7.0 miles
Clouds Clear
Dew Point 56 °F
Humidity 98%
Rainfall 0.00 in
Snow Depth Not available.
UV 0 out of 12
Pollen 3.60 out of 12
Air Quality Not available.
Flu Activity No Activity
METAR KWLD 241254Z AUTO 17008KT 7SM CLR 13/13 A3008 RMK AO2 SLP181 T01330133

More Conditions Fewer Conditions

10-Day Weather Forecast

Almanac

Astronomy

Oct. 24, 2014 Rise Set
Actual Time 7:43 AM CDT 6:38 PM CDT
Civil Twilight 7:17 AM CDT 7:04 PM CDT
Nautical Twilight 6:46 AM CDT 7:35 PM CDT
Astronomical Twilight 6:16 AM CDT 8:05 PM CDT
Moon 8:23 AM CDT 7:19 PM CDT
Length of Visible Light 11h 47m
Length of Day
10h 54m
Tomorrow will be 2m 12s shorter.
New Moon, 0% of the Moon is Illuminated
Today
New Moon
Oct 30
First Quarter
Nov 6
Full
Nov 14
Last Quarter
Nov 22
New

Today's Extremes

State Highs State Lows

Community

WunderPhotos

Upload Photos

1,764,550 photos uploaded!

WunderBlogs® & News

Nearby

Snow Depth

Station Depth Elevation
No new snow has been reported.

Earthquake Activity

City Distance Mag. Time & Date
Medford, Oklahoma 75 miles 3.0 2:06 AM CDT
2014-10-23
Pawnee, Oklahoma 71 miles 2.7 1:06 AM CDT
2014-10-23
Luther, Oklahoma 128 miles 2.5 10:36 PM CDT
2014-10-22
Crescent, Oklahoma 102 miles 2.7 9:58 PM CDT
2014-10-22
Minimum magnitude displayed is 2.5.

Coastal Water Temperatures

Place Temperature
No Stations Reporting

Nearby Weather Stations